Hlavní strana
METAR-TAF:

METAR-TAF

Letiště :

Heidrun, Norsko

zeměpisná šířka: 65-19-30N, zeměpisná délka: 007-19-36E, výška: 0 m

Aktuální stav počasí

Zpráva byla vytvořena před 27 minutami, v 21:20 UTC
Západní vítr 9 kt
Teplota 7°C
Vlhkost vzduchu 66%
Tlak 1012 hPa
Viditelnost 10 km a více
Skoro jasno ve výšce 2500 ft

METAR: ENHE 142120Z 26009KT 9999 FEW025 07/01 Q1012 W///S3

Čas: 23:47 (21:47 UTC)

Předpověď počasí

Zpráva byla vytvořena před 1 hodinou a 47 minutami, v 20:00 UTC
Předpověď platná od 14 v 21 UTC do 15 v 06 UTC
Západní vítr 8 kt
Viditelnost 10 km a více
Skoro jasno ve výšce 2000 ft
Polojasno ve výšce 3000 ft, Vertikální cumulus.
slabé dešťové přeháňky
Dočasný
od 14 v 21 UTC do 15 v 06 UTC
Polojasno ve výšce 2000 ft, Cumulonimbus.

TAF: ENHE 142000Z 1421/1506 27008KT 9999 -SHRA FEW020 SCT030TCU TEMPO 1421/1506 SCT020CB

Stav a předpovědi počasí z více než 4 000 letišť (zprávy METAR a TAF).

Červené a žluté tečky na mapě představují dostupné meteorologické stanice.

Když kurzor umístíte na tečku, zobrazí se název stanice.

Pak kliknutím zobrazíte stav a předpověď počasí.

Chcete-li změnit mapu, kliknutím na zelené tlačítko se znaménkem +mapu přiblížíte, kliknutím na zelené tlačítko se znaménkem – mapu oddálíte a kliknutím na zelené šipky přejdete na sousední mapy.


METAR-TAF: